Time;durP1;ratioP1;P1;durP2;ratioP2;P2;SDS_P1;SDS_P2;PMS_P1;PMS_P2;Temp;Humidity;BMP_temperature;BMP_pressure;BME280_temperature;BME280_humidity;BME280_pressure;Samples;Min_cycle;Max_cycle;Signal;HPM_P1;HPM_P2
2021/05/30 00:02:18;;;;;;;3.08;2.80;;;;;;;10.37;85.97;94312.32;1652405;85;21047;-59
2021/05/30 00:04:46;;;;;;;4.12;3.17;;;;;;;10.38;86.06;94315.22;1650212;85;21122;-58
2021/05/30 00:07:13;;;;;;;4.85;3.10;;;;;;;10.40;86.01;94317.53;1650836;85;21128;-58
2021/05/30 00:09:41;;;;;;;3.22;3.02;;;;;;;10.43;85.86;94311.11;1651140;86;21080;-58
2021/05/30 00:12:10;;;;;;;4.20;2.90;;;;;;;10.41;85.61;94316.31;1651659;85;21099;-58
2021/05/30 00:14:38;;;;;;;5.87;3.40;;;;;;;10.36;85.55;94321.04;1650492;85;21186;-58
2021/05/30 00:17:07;;;;;;;2.62;2.42;;;;;;;10.33;85.62;94320.58;1650466;86;21148;-56
2021/05/30 00:19:34;;;;;;;6.80;3.72;;;;;;;10.35;85.41;94323.64;1649944;86;21052;-58
2021/05/30 00:22:03;;;;;;;6.75;4.00;;;;;;;10.29;85.46;94320.72;1651158;85;20969;-58
2021/05/30 00:24:30;;;;;;;5.20;4.25;;;;;;;10.24;85.72;94323.30;1650210;85;21063;-59
2021/05/30 00:26:56;;;;;;;4.10;3.70;;;;;;;10.20;85.95;94312.44;1646998;86;22680;-59
2021/05/30 00:29:23;;;;;;;7.05;4.95;;;;;;;10.24;85.85;94311.70;1608771;87;21103;-59
2021/05/30 00:31:50;;;;;;;6.33;4.90;;;;;;;10.26;85.80;94313.98;1608456;88;21022;-59
2021/05/30 00:34:17;;;;;;;4.25;3.50;;;;;;;10.29;85.72;94313.06;1608020;86;21062;-57
2021/05/30 00:36:44;;;;;;;4.03;3.52;;;;;;;10.29;85.59;94317.19;1606860;86;21022;-56
2021/05/30 00:39:10;;;;;;;5.47;3.37;;;;;;;10.26;85.82;94315.36;1650259;86;21078;-59
2021/05/30 00:41:37;;;;;;;5.03;3.25;;;;;;;10.31;86.31;94306.53;1652884;86;21856;-59
2021/05/30 00:44:27;;;;;;;3.05;2.85;;;;;;;10.35;86.53;94315.39;1652201;85;21135;-58
2021/05/30 00:46:55;;;;;;;3.50;3.30;;;;;;;10.37;86.49;94300.57;1649600;86;21091;-59
2021/05/30 00:49:22;;;;;;;4.20;3.90;;;;;;;10.35;86.24;94307.14;1650052;85;21122;-59
2021/05/30 00:51:49;;;;;;;3.10;2.80;;;;;;;10.33;86.24;94301.34;1652016;85;21060;-59
2021/05/30 00:54:17;;;;;;;6.37;4.83;;;;;;;10.34;86.34;94300.11;1650700;85;21709;-59
2021/05/30 00:56:44;;;;;;;4.87;3.35;;;;;;;10.29;86.35;94292.45;1652071;85;21037;-59
2021/05/30 00:59:11;;;;;;;5.05;3.72;;;;;;;10.26;86.59;94293.36;1650169;86;21108;-58
2021/05/30 01:01:39;;;;;;;5.58;3.62;;;;;;;10.25;86.59;94294.59;1650454;86;21105;-56
2021/05/30 01:04:06;;;;;;;6.80;4.67;;;;;;;10.26;86.59;94297.48;1649779;85;21136;-59
2021/05/30 01:06:34;;;;;;;7.25;4.62;;;;;;;10.31;86.55;94290.78;1651178;86;21158;-60
2021/05/30 01:09:03;;;;;;;5.33;4.30;;;;;;;10.35;86.28;94292.02;1650378;86;21051;-59
2021/05/30 01:11:29;;;;;;;4.20;3.50;;;;;;;10.36;86.15;94286.67;1648237;86;21643;-59
2021/05/30 01:13:58;;;;;;;6.08;3.90;;;;;;;10.33;85.76;94290.34;1651585;86;21112;-57
2021/05/30 01:16:27;;;;;;;5.20;3.92;;;;;;;10.31;85.95;94289.41;1650962;86;21084;-58
2021/05/30 01:18:59;;;;;;;6.00;3.77;;;;;;;10.36;85.73;94286.05;1650145;85;22792;-58
2021/05/30 01:21:31;;;;;;;3.08;2.80;;;;;;;10.37;85.39;94285.45;1651953;86;21084;-57
2021/05/30 01:23:57;;;;;;;6.08;4.03;;;;;;;10.34;85.31;94283.62;1645029;85;21067;-58
2021/05/30 01:26:24;;;;;;;7.85;4.30;;;;;;;10.32;85.39;94286.06;1646301;86;21207;-58
2021/05/30 01:28:51;;;;;;;8.08;4.72;;;;;;;10.30;85.24;94284.35;1613340;86;21083;-57
2021/05/30 01:31:19;;;;;;;5.12;4.00;;;;;;;10.25;85.18;94283.59;1604398;88;21136;-59
2021/05/30 01:33:46;;;;;;;12.65;4.55;;;;;;;10.21;85.54;94285.73;1598077;88;21098;-59
2021/05/30 01:36:13;;;;;;;6.83;4.03;;;;;;;10.23;85.90;94295.66;1600583;88;21066;-57
2021/05/30 01:38:42;;;;;;;7.17;4.03;;;;;;;10.21;85.97;94289.84;1600595;88;21061;-59
2021/05/30 01:41:08;;;;;;;6.05;3.85;;;;;;;10.15;86.18;94288.94;1607725;87;21071;-58
2021/05/30 01:43:35;;;;;;;4.00;3.62;;;;;;;10.14;86.55;94281.91;1602597;88;21174;-59
2021/05/30 01:46:02;;;;;;;5.50;3.65;;;;;;;10.20;86.62;94283.58;1597684;88;21102;-58
2021/05/30 01:48:29;;;;;;;6.47;3.83;;;;;;;10.26;86.72;94276.87;1606875;88;20999;-58
2021/05/30 01:50:56;;;;;;;3.95;3.58;;;;;;;10.31;86.54;94279.78;1607172;87;21185;-60
2021/05/30 01:53:36;;;;;;;3.60;3.17;;;;;;;10.37;86.55;94275.83;1607016;87;21018;-60
2021/05/30 01:58:27;;;;;;;2.70;2.50;;;;;;;10.40;85.57;94283.94;1606105;86;21221;-59
2021/05/30 02:00:54;;;;;;;4.75;3.50;;;;;;;10.32;85.51;94286.06;1602851;88;21060;-58
2021/05/30 02:03:21;;;;;;;5.05;3.62;;;;;;;10.21;85.63;94285.13;1629312;86;21202;-59
2021/05/30 02:05:51;;;;;;;6.78;3.75;;;;;;;10.18;86.02;94286.02;1650756;85;21132;-58
2021/05/30 02:08:19;;;;;;;6.58;3.98;;;;;;;10.12;86.13;94289.22;1650849;85;21136;-59
2021/05/30 02:10:46;;;;;;;5.33;3.55;;;;;;;10.09;86.55;94286.02;1649598;86;21091;-59
2021/05/30 02:13:14;;;;;;;5.30;3.10;;;;;;;10.10;86.77;94289.51;1648049;86;21033;-59
2021/05/30 02:15:41;;;;;;;4.47;2.98;;;;;;;10.11;86.86;94290.44;1647590;86;21028;-58
2021/05/30 02:18:09;;;;;;;3.42;3.22;;;;;;;10.10;86.97;94295.00;1648488;86;21008;-59
2021/05/30 02:20:39;;;;;;;3.72;3.40;;;;;;;10.13;87.35;94292.75;1650289;86;21849;-59
2021/05/30 02:23:12;;;;;;;4.62;4.17;;;;;;;10.14;87.18;94285.41;1649307;86;21631;-56
2021/05/30 02:25:40;;;;;;;7.47;5.50;;;;;;;10.11;87.25;94281.42;1650845;86;21092;-57
2021/05/30 02:28:06;;;;;;;8.35;4.70;;;;;;;10.09;87.37;94285.23;1642040;86;21114;-59
2021/05/30 02:30:33;;;;;;;7.85;5.10;;;;;;;10.09;87.42;94290.13;1637110;86;21155;-59
2021/05/30 02:33:03;;;;;;;10.88;6.42;;;;;;;10.05;87.47;94291.48;1638630;86;21246;-59
2021/05/30 02:35:29;;;;;;;6.67;5.45;;;;;;;9.98;87.75;94293.13;1632017;86;21028;-58
2021/05/30 02:37:56;;;;;;;4.47;4.08;;;;;;;9.98;88.11;94292.50;1633208;86;21066;-58
2021/05/30 02:40:23;;;;;;;6.10;4.17;;;;;;;10.01;88.18;94296.34;1630766;86;21015;-58
2021/05/30 02:42:50;;;;;;;4.70;4.03;;;;;;;10.08;88.20;94294.11;1638318;85;21636;-58
2021/05/30 02:45:16;;;;;;;3.92;3.55;;;;;;;10.16;88.14;94295.33;1646123;85;21082;-58
2021/05/30 02:47:43;;;;;;;4.37;3.98;;;;;;;10.19;87.79;94293.66;1647114;86;21645;-59
2021/05/30 02:50:12;;;;;;;3.85;3.55;;;;;;;10.16;87.77;94298.70;1636227;86;21043;-58
2021/05/30 02:52:39;;;;;;;3.75;3.45;;;;;;;10.13;87.69;94299.63;1631714;86;21069;-58
2021/05/30 02:55:07;;;;;;;3.95;3.42;;;;;;;10.17;87.54;94300.23;1633817;86;21598;-59
2021/05/30 02:57:34;;;;;;;4.78;4.15;;;;;;;10.21;87.63;94299.47;1639992;87;21115;-58
2021/05/30 03:00:00;;;;;;;14.60;6.78;;;;;;;10.27;87.49;94303.92;1633541;87;21047;-58
2021/05/30 03:02:27;;;;;;;5.00;4.10;;;;;;;10.32;87.08;94302.56;1630741;86;21015;-58
2021/05/30 03:04:53;;;;;;;8.25;4.78;;;;;;;10.32;86.65;94295.06;1638438;86;21090;-58
2021/05/30 03:07:20;;;;;;;12.70;6.92;;;;;;;10.30;86.41;94300.84;1638329;86;21194;-59
2021/05/30 03:09:46;;;;;;;6.12;5.00;;;;;;;10.32;86.40;94298.44;1629826;86;21115;-57
2021/05/30 03:12:14;;;;;;;6.45;4.30;;;;;;;10.36;86.45;94294.92;1626670;87;21014;-59
2021/05/30 03:14:41;;;;;;;5.33;3.42;;;;;;;10.36;86.40;94298.42;1632266;86;20995;-56
2021/05/30 03:17:07;;;;;;;3.62;3.33;;;;;;;10.35;86.53;94283.77;1630093;86;21066;-58
2021/05/30 03:19:35;;;;;;;3.50;3.20;;;;;;;10.40;86.71;94288.06;1628549;86;21118;-59
2021/05/30 03:22:03;;;;;;;2.92;2.72;;;;;;;10.45;86.52;94286.66;1639610;86;21121;-58
2021/05/30 03:24:30;;;;;;;3.40;3.20;;;;;;;10.48;86.44;94283.00;1635484;85;21133;-59
2021/05/30 03:26:56;;;;;;;3.52;3.30;;;;;;;10.54;86.56;94285.31;1629174;86;21132;-58
2021/05/30 03:29:23;;;;;;;2.98;2.75;;;;;;;10.56;86.17;94289.12;1649367;85;21040;-59
2021/05/30 03:31:50;;;;;;;3.52;3.22;;;;;;;10.58;86.00;94285.92;1657742;85;21229;-58
2021/05/30 03:34:16;;;;;;;3.40;3.20;;;;;;;10.58;86.02;94288.67;1652762;85;21632;-58
2021/05/30 03:36:46;;;;;;;3.30;3.10;;;;;;;10.63;86.36;94289.43;1652147;85;21464;-59
2021/05/30 03:39:12;;;;;;;4.30;3.10;;;;;;;10.73;86.37;94288.22;1649232;86;21167;-57
2021/05/30 03:41:43;;;;;;;5.12;3.70;;;;;;;10.79;85.96;94289.28;1653074;85;21103;-59
2021/05/30 03:44:10;;;;;;;4.33;4.00;;;;;;;10.75;85.84;94285.92;1654127;85;21079;-58
2021/05/30 03:46:36;;;;;;;5.75;3.77;;;;;;;10.74;85.87;94287.15;1650940;86;21683;-58
2021/05/30 03:49:07;;;;;;;5.35;3.90;;;;;;;10.77;85.88;94290.36;1646669;86;21056;-59
2021/05/30 03:51:33;;;;;;;4.00;3.70;;;;;;;10.79;85.64;94292.03;1650506;85;21095;-59
2021/05/30 03:53:59;;;;;;;6.50;4.60;;;;;;;10.77;85.69;94285.48;1657079;84;21004;-59
2021/05/30 03:56:26;;;;;;;5.47;5.08;;;;;;;10.72;85.75;94286.70;1655716;85;21464;-59
2021/05/30 03:58:52;;;;;;;5.25;4.80;;;;;;;10.70;85.99;94293.27;1657536;85;21708;-58
2021/05/30 04:01:19;;;;;;;5.15;4.75;;;;;;;10.71;85.90;94296.92;1655663;85;20993;-59
2021/05/30 04:03:46;;;;;;;4.33;4.00;;;;;;;10.72;85.92;94287.45;1655127;85;21087;-58
2021/05/30 04:06:13;;;;;;;6.22;3.98;;;;;;;10.77;86.09;94291.73;1651282;85;21075;-58
2021/05/30 04:08:40;;;;;;;5.45;5.05;;;;;;;10.86;85.78;94290.97;1649635;85;21016;-58
2021/05/30 04:11:06;;;;;;;4.85;4.45;;;;;;;10.92;85.37;94285.77;1649753;86;21731;-58
2021/05/30 04:13:33;;;;;;;4.83;4.42;;;;;;;10.98;85.14;94294.92;1656560;85;21729;-58
2021/05/30 04:16:00;;;;;;;4.28;3.87;;;;;;;11.06;84.94;94289.88;1653041;86;21690;-60
2021/05/30 04:18:27;;;;;;;4.53;4.10;;;;;;;11.08;84.61;94292.92;1655084;85;21198;-57
2021/05/30 04:20:54;;;;;;;3.30;3.10;;;;;;;11.05;84.35;94297.38;1655810;85;20992;-59
2021/05/30 04:23:21;;;;;;;5.40;3.30;;;;;;;11.00;84.04;94291.72;1654509;85;21172;-59
2021/05/30 04:25:48;;;;;;;3.95;3.55;;;;;;;10.97;84.00;94294.77;1648218;85;21578;-58
2021/05/30 04:28:15;;;;;;;3.65;3.27;;;;;;;10.93;83.79;94289.27;1617297;86;21209;-59
2021/05/30 04:30:42;;;;;;;3.22;2.58;;;;;;;10.90;83.77;94295.09;1611818;88;21582;-60
2021/05/30 04:33:09;;;;;;;2.70;2.50;;;;;;;10.85;82.59;94297.09;1599443;88;21102;-59
2021/05/30 04:35:36;;;;;;;4.28;3.10;;;;;;;10.71;81.85;94292.05;1600298;88;21850;-59
2021/05/30 04:38:04;;;;;;;5.90;2.80;;;;;;;10.57;81.15;94292.64;1604072;88;21543;-60
2021/05/30 04:40:30;;;;;;;3.47;2.75;;;;;;;10.41;80.81;94290.96;1601943;87;21020;-59
2021/05/30 04:42:57;;;;;;;3.22;2.80;;;;;;;10.29;81.01;94294.60;1608680;88;21026;-58
2021/05/30 04:45:25;;;;;;;3.60;2.45;;;;;;;10.21;81.22;94300.84;1606919;87;21098;-59
2021/05/30 04:47:54;;;;;;;3.10;2.80;;;;;;;10.12;80.63;94296.69;1612112;87;21043;-58
2021/05/30 04:50:20;;;;;;;3.58;3.27;;;;;;;9.99;80.64;94304.28;1606568;88;21070;-59
2021/05/30 04:52:47;;;;;;;6.12;5.55;;;;;;;9.89;81.05;94308.20;1610771;86;21085;-57
2021/05/30 04:55:15;;;;;;;3.90;3.60;;;;;;;9.82;81.67;94309.23;1644670;86;21178;-59
2021/05/30 04:57:44;;;;;;;4.25;3.95;;;;;;;9.77;81.94;94309.09;1638974;86;21661;-59
2021/05/30 05:00:12;;;;;;;4.00;3.70;;;;;;;9.76;81.76;94312.44;1638523;86;21027;-58
2021/05/30 05:02:41;;;;;;;3.72;2.60;;;;;;;9.76;81.75;94311.06;1634685;86;21063;-58
2021/05/30 05:05:12;;;;;;;3.10;2.90;;;;;;;9.71;81.47;94313.03;1630000;86;21074;-58
2021/05/30 05:07:40;;;;;;;2.55;2.40;;;;;;;9.68;81.11;94320.02;1630259;86;21098;-58
2021/05/30 05:10:10;;;;;;;5.10;4.80;;;;;;;9.63;81.29;94319.25;1628801;87;21080;-58
2021/05/30 05:12:37;;;;;;;2.70;2.60;;;;;;;9.60;81.36;94317.41;1637465;86;21120;-57
2021/05/30 05:15:06;;;;;;;3.10;2.90;;;;;;;9.62;80.98;94316.34;1632232;86;21036;-58
2021/05/30 05:17:32;;;;;;;25.05;21.42;;;;;;;9.59;80.91;94320.75;1628366;86;21075;-57
2021/05/30 05:19:59;;;;;;;11.83;10.68;;;;;;;9.59;80.84;94320.00;1637883;86;21043;-59
2021/05/30 05:22:26;;;;;;;4.72;4.33;;;;;;;9.56;80.54;94316.16;1636268;86;21126;-59
2021/05/30 05:24:54;;;;;;;11.68;9.80;;;;;;;9.55;80.79;94316.00;1629652;86;21135;-58
2021/05/30 05:27:20;;;;;;;16.45;11.85;;;;;;;9.51;80.67;94318.72;1627630;86;21689;-59
2021/05/30 05:29:47;;;;;;;16.23;13.60;;;;;;;9.52;80.73;94327.12;1630033;86;21093;-58
2021/05/30 05:32:13;;;;;;;6.08;5.47;;;;;;;9.53;81.04;94321.78;1630606;85;21034;-59
2021/05/30 05:34:41;;;;;;;4.80;4.40;;;;;;;9.58;80.71;94325.33;1640621;86;21011;-59
2021/05/30 05:37:08;;;;;;;5.70;3.45;;;;;;;9.63;80.54;94320.63;1630481;86;21854;-60
2021/05/30 05:39:36;;;;;;;3.72;3.27;;;;;;;9.68;80.62;94328.27;1640005;86;21122;-60
2021/05/30 05:42:04;;;;;;;3.62;3.33;;;;;;;9.73;80.31;94323.55;1628150;87;20987;-58
2021/05/30 05:44:31;;;;;;;3.87;3.58;;;;;;;9.79;80.06;94327.26;1631075;85;21063;-58
2021/05/30 05:46:57;;;;;;;4.17;3.87;;;;;;;9.82;79.72;94328.47;1643141;86;21054;-59
2021/05/30 05:49:24;;;;;;;4.40;4.00;;;;;;;9.92;79.72;94332.02;1639999;86;21092;-58
2021/05/30 05:51:51;;;;;;;4.37;4.08;;;;;;;10.05;79.86;94328.59;1634522;86;21502;-60
2021/05/30 05:54:17;;;;;;;5.00;3.05;;;;;;;10.19;79.77;94332.15;1632276;87;21190;-59
2021/05/30 05:56:44;;;;;;;4.00;3.60;;;;;;;10.30;79.52;94332.46;1633327;87;21015;-58
2021/05/30 05:59:11;;;;;;;4.17;3.75;;;;;;;10.42;79.15;94326.08;1627338;87;21042;-59
2021/05/30 06:01:37;;;;;;;2.60;2.45;;;;;;;10.52;77.75;94329.02;1622952;86;21074;-58
2021/05/30 06:04:04;;;;;;;2.52;2.33;;;;;;;10.59;76.25;94329.48;1634340;85;21661;-58
2021/05/30 06:06:33;;;;;;;2.77;2.58;;;;;;;10.68;74.92;94332.86;1633293;87;21050;-59
2021/05/30 06:09:00;;;;;;;2.58;2.37;;;;;;;10.77;75.04;94333.00;1625707;87;21129;-60
2021/05/30 06:11:26;;;;;;;2.55;2.35;;;;;;;10.87;74.27;94341.42;1621710;87;21096;-59
2021/05/30 06:13:53;;;;;;;4.30;3.95;;;;;;;10.90;73.12;94336.97;1623718;87;21171;-60
2021/05/30 06:16:20;;;;;;;5.30;3.20;;;;;;;10.97;73.38;94331.93;1631355;86;21106;-60
2021/05/30 06:18:47;;;;;;;2.52;2.42;;;;;;;11.05;72.53;94333.17;1627851;86;21054;-59
2021/05/30 06:21:14;;;;;;;3.67;3.37;;;;;;;11.10;72.20;94342.77;1628786;86;21127;-58
2021/05/30 06:23:41;;;;;;;4.50;4.20;;;;;;;11.10;71.93;94351.81;1635675;86;21094;-59
2021/05/30 06:26:10;;;;;;;3.87;2.92;;;;;;;11.15;72.08;94353.94;1638557;86;21202;-58
2021/05/30 06:28:36;;;;;;;2.92;2.72;;;;;;;11.20;71.92;94347.81;1631852;85;21092;-59
2021/05/30 06:31:03;;;;;;;2.30;2.20;;;;;;;11.17;71.32;94352.13;1640971;86;20989;-60
2021/05/30 06:33:30;;;;;;;2.52;2.42;;;;;;;11.10;71.49;94353.19;1634531;87;21038;-59
2021/05/30 06:35:57;;;;;;;2.72;2.17;;;;;;;11.08;71.71;94363.90;1626953;86;21029;-59
2021/05/30 06:38:24;;;;;;;2.45;2.30;;;;;;;11.02;71.37;94361.59;1635258;87;21068;-60
2021/05/30 06:40:50;;;;;;;2.30;2.10;;;;;;;10.98;71.65;94369.23;1638800;86;21507;-59
2021/05/30 06:43:17;;;;;;;2.25;2.15;;;;;;;10.95;71.87;94364.66;1628026;87;21061;-58
2021/05/30 06:45:43;;;;;;;2.40;2.25;;;;;;;10.96;71.92;94364.80;1636164;87;21101;-59
2021/05/30 06:48:10;;;;;;;2.70;2.50;;;;;;;10.93;71.64;94368.48;1630010;87;21628;-58
2021/05/30 06:50:37;;;;;;;2.35;2.20;;;;;;;10.88;72.10;94372.45;1632373;87;21088;-59
2021/05/30 06:53:04;;;;;;;2.47;2.37;;;;;;;10.88;72.20;94373.22;1631023;87;21086;-59
2021/05/30 06:55:31;;;;;;;3.90;2.72;;;;;;;10.91;72.29;94375.66;1633334;87;21509;-59
2021/05/30 06:57:57;;;;;;;3.08;2.87;;;;;;;10.95;72.61;94379.79;1626981;87;21214;-60
2021/05/30 07:00:24;;;;;;;4.92;4.08;;;;;;;10.99;72.58;94379.65;1633612;87;21608;-60
2021/05/30 07:02:51;;;;;;;2.58;2.37;;;;;;;11.03;72.37;94381.03;1656336;85;21139;-57
2021/05/30 07:05:21;;;;;;;2.83;2.62;;;;;;;11.05;72.06;94380.56;1649094;85;21067;-59
2021/05/30 07:07:46;;;;;;;2.85;2.65;;;;;;;11.13;71.98;94390.81;1651049;85;21752;-59
2021/05/30 07:10:15;;;;;;;2.55;2.45;;;;;;;11.22;72.33;94384.53;1652616;85;21123;-59
2021/05/30 07:12:42;;;;;;;3.80;3.60;;;;;;;11.29;71.93;94394.63;1650470;85;21040;-60
2021/05/30 07:15:11;;;;;;;2.90;2.70;;;;;;;11.37;72.02;94391.70;1652303;85;21093;-59
2021/05/30 07:17:38;;;;;;;2.83;2.55;;;;;;;11.45;71.84;94388.81;1650774;86;21059;-59
2021/05/30 07:20:07;;;;;;;3.27;2.58;;;;;;;11.49;71.26;94383.91;1650155;86;20997;-59
2021/05/30 07:22:34;;;;;;;2.90;2.70;;;;;;;11.54;71.25;94388.78;1651224;86;21135;-57
2021/05/30 07:25:01;;;;;;;4.30;4.00;;;;;;;11.66;71.37;94389.26;1650422;85;21093;-58
2021/05/30 07:27:28;;;;;;;2.92;2.80;;;;;;;11.80;71.14;94392.76;1646293;85;21095;-60
2021/05/30 07:29:55;;;;;;;2.55;2.35;;;;;;;11.89;70.97;94400.98;1633674;86;21010;-59
2021/05/30 07:32:21;;;;;;;2.92;2.62;;;;;;;11.91;71.10;94401.28;1640080;87;21141;-60
2021/05/30 07:34:48;;;;;;;2.60;2.42;;;;;;;11.94;69.67;94398.98;1632081;87;21081;-60
2021/05/30 07:37:15;;;;;;;2.47;2.27;;;;;;;11.95;69.18;94400.53;1628425;86;21642;-60
2021/05/30 07:39:42;;;;;;;2.05;1.95;;;;;;;12.02;69.19;94401.58;1631911;87;21194;-58
2021/05/30 07:42:09;;;;;;;1.70;1.60;;;;;;;12.10;69.20;94402.76;1626008;87;21020;-59
2021/05/30 07:44:36;;;;;;;1.87;1.77;;;;;;;12.12;68.11;94401.67;1627981;85;21119;-60
2021/05/30 07:47:05;;;;;;;2.17;1.85;;;;;;;12.12;69.01;94398.92;1654562;85;21238;-59
2021/05/30 07:49:31;;;;;;;3.00;2.80;;;;;;;12.13;67.58;94401.08;1645566;86;21737;-59
2021/05/30 07:52:01;;;;;;;3.05;2.85;;;;;;;12.07;66.67;94400.19;1642110;86;21568;-59
2021/05/30 07:54:28;;;;;;;4.17;2.92;;;;;;;11.97;66.66;94400.83;1645218;86;21131;-58
2021/05/30 07:56:55;;;;;;;3.22;2.90;;;;;;;11.87;66.80;94400.69;1647022;86;21000;-59
2021/05/30 07:59:22;;;;;;;3.40;3.05;;;;;;;11.79;66.40;94404.23;1646592;86;21159;-60
2021/05/30 08:01:51;;;;;;;4.45;2.87;;;;;;;11.69;66.72;94403.48;1645889;86;21123;-60
2021/05/30 08:04:18;;;;;;;3.27;2.98;;;;;;;11.57;67.26;94411.93;1646297;87;21730;-58
2021/05/30 08:06:48;;;;;;;3.47;3.17;;;;;;;11.45;67.43;94408.09;1648801;85;21029;-59
2021/05/30 08:09:15;;;;;;;4.00;2.92;;;;;;;11.38;67.67;94413.89;1647825;86;21048;-60
2021/05/30 08:11:43;;;;;;;2.70;2.50;;;;;;;11.34;67.44;94405.02;1646140;86;21033;-59
2021/05/30 08:14:11;;;;;;;2.98;2.67;;;;;;;11.35;68.13;94411.31;1646345;86;21508;-60
2021/05/30 08:16:41;;;;;;;3.45;3.15;;;;;;;11.36;67.10;94414.22;1646125;85;21093;-59
2021/05/30 08:19:10;;;;;;;4.70;3.22;;;;;;;11.39;67.43;94416.05;1654010;85;21618;-59
2021/05/30 08:21:38;;;;;;;2.92;2.72;;;;;;;11.43;67.36;94416.66;1663779;85;21091;-58
2021/05/30 08:24:06;;;;;;;2.30;2.17;;;;;;;11.41;67.01;94414.97;1652763;85;21079;-59
2021/05/30 08:26:33;;;;;;;3.95;3.65;;;;;;;11.38;66.98;94419.40;1650881;85;21159;-58
2021/05/30 08:29:00;;;;;;;3.80;3.47;;;;;;;11.36;67.51;94420.47;1635326;86;21044;-59
2021/05/30 08:31:27;;;;;;;3.35;3.05;;;;;;;11.42;67.52;94413.15;1638169;86;21141;-61
2021/05/30 08:33:53;;;;;;;4.33;2.75;;;;;;;11.45;67.78;94425.22;1641125;86;21011;-59
2021/05/30 08:36:20;;;;;;;2.83;2.62;;;;;;;11.48;67.15;94431.17;1639148;87;21039;-59
2021/05/30 08:38:48;;;;;;;2.90;2.70;;;;;;;11.50;67.10;94427.38;1636664;86;21059;-60
2021/05/30 08:41:18;;;;;;;4.28;2.85;;;;;;;11.50;66.51;94428.13;1643379;86;22282;-59
2021/05/30 08:43:45;;;;;;;2.95;2.75;;;;;;;11.55;66.59;94441.28;1635076;86;21035;-58
2021/05/30 08:46:13;;;;;;;2.90;2.70;;;;;;;11.63;66.77;94436.25;1635169;86;21030;-59
2021/05/30 08:48:41;;;;;;;3.62;2.65;;;;;;;11.69;66.85;94435.80;1632540;85;21145;-59
2021/05/30 08:51:12;;;;;;;2.90;2.70;;;;;;;11.79;67.49;94427.06;1629526;86;21111;-60
2021/05/30 08:53:41;;;;;;;3.15;2.85;;;;;;;11.87;67.44;94433.02;1630837;86;21701;-61
2021/05/30 08:56:12;;;;;;;3.45;3.15;;;;;;;11.93;66.72;94425.64;1637767;86;21086;-59
2021/05/30 08:58:42;;;;;;;3.00;2.80;;;;;;;11.98;66.74;94431.30;1632619;86;21019;-60
2021/05/30 09:01:16;;;;;;;3.55;2.87;;;;;;;12.02;66.98;94430.52;1627969;86;21095;-60
2021/05/30 09:04:06;;;;;;;2.72;2.52;;;;;;;12.07;66.61;94429.14;1639019;87;21078;-59
2021/05/30 09:06:43;;;;;;;2.20;2.10;;;;;;;12.18;66.52;94428.80;1634660;86;21188;-60
2021/05/30 09:09:12;;;;;;;3.67;2.15;;;;;;;12.32;65.46;94438.39;1638255;86;21019;-59
2021/05/30 09:11:50;;;;;;;3.08;1.80;;;;;;;12.38;65.13;94437.30;1639340;86;21134;-59
2021/05/30 09:14:31;;;;;;;2.50;2.40;;;;;;;12.38;65.06;94433.16;1636802;87;21066;-61
2021/05/30 09:17:07;;;;;;;2.10;2.00;;;;;;;12.42;65.20;94433.75;1636965;86;21139;-59
2021/05/30 09:19:53;;;;;;;1.80;1.70;;;;;;;12.52;64.84;94435.26;1631679;86;21679;-58
2021/05/30 09:22:43;;;;;;;2.00;1.90;;;;;;;12.65;64.84;94438.55;1635269;86;21014;-59
2021/05/30 09:25:17;;;;;;;3.80;3.50;;;;;;;12.80;64.14;94436.63;1635313;86;21228;-59
2021/05/30 09:27:51;;;;;;;2.92;2.75;;;;;;;12.98;65.03;94442.08;1643670;86;21048;-58
2021/05/30 09:30:34;;;;;;;2.40;2.20;;;;;;;13.12;62.73;94445.53;1628683;85;21150;-60
2021/05/30 09:33:06;;;;;;;3.60;3.30;;;;;;;13.19;62.68;94442.41;1630191;86;21089;-62
2021/05/30 09:35:51;;;;;;;3.12;2.35;;;;;;;13.21;62.64;94438.55;1640851;87;21006;-60
2021/05/30 09:38:27;;;;;;;2.15;1.90;;;;;;;13.22;62.67;94437.31;1629564;86;21134;-60
2021/05/30 09:41:02;;;;;;;1.90;1.75;;;;;;;13.28;61.34;94442.35;1632806;86;21091;-59
2021/05/30 09:43:37;;;;;;;6.95;2.37;;;;;;;13.22;61.93;94437.31;1632219;86;21113;-60
2021/05/30 09:46:19;;;;;;;3.20;2.27;;;;;;;13.17;61.90;94440.12;1634721;85;21114;-59
2021/05/30 09:48:56;;;;;;;1.65;1.50;;;;;;;13.13;61.67;94441.53;1633511;86;21205;-59
2021/05/30 09:51:29;;;;;;;2.50;2.30;;;;;;;13.09;61.10;94445.09;1638481;86;21046;-59
2021/05/30 09:54:06;;;;;;;1.80;1.70;;;;;;;13.05;61.26;94441.75;1635224;86;21090;-60
2021/05/30 09:56:43;;;;;;;2.62;1.70;;;;;;;13.05;61.19;94440.37;1633788;87;21127;-58
2021/05/30 09:59:14;;;;;;;2.25;2.05;;;;;;;13.10;61.56;94441.09;1635145;87;21147;-59
2021/05/30 10:01:59;;;;;;;3.02;1.90;;;;;;;13.12;61.52;94446.91;1638438;87;21767;-61
2021/05/30 10:04:28;;;;;;;1.72;1.62;;;;;;;13.14;60.89;94443.84;1639512;87;21114;-61
2021/05/30 10:06:58;;;;;;;2.17;1.57;;;;;;;13.08;60.60;94450.47;1642612;85;21115;-59
2021/05/30 10:09:27;;;;;;;2.00;1.90;;;;;;;12.99;60.98;94454.66;1637036;86;21055;-59
2021/05/30 10:11:55;;;;;;;1.90;1.80;;;;;;;12.95;61.11;94451.31;1630894;86;21646;-59
2021/05/30 10:14:24;;;;;;;4.17;1.82;;;;;;;12.91;61.38;94451.45;1627178;87;21054;-59
2021/05/30 10:16:50;;;;;;;3.40;2.20;;;;;;;12.89;61.99;94455.92;1623773;87;20991;-61
2021/05/30 10:19:36;;;;;;;1.92;1.82;;;;;;;12.81;62.32;94462.41;1639403;86;21134;-59
2021/05/30 10:22:04;;;;;;;1.77;1.50;;;;;;;12.74;62.86;94456.45;1635689;86;21121;-59
2021/05/30 10:24:31;;;;;;;4.78;1.90;;;;;;;12.68;62.64;94461.09;1642469;86;21110;-60
2021/05/30 10:27:19;;;;;;;5.95;2.33;;;;;;;12.67;63.39;94462.30;1643090;85;21125;-61
2021/05/30 10:30:13;;;;;;;3.25;2.75;;;;;;;12.66;61.94;94456.63;1639887;86;21078;-60
2021/05/30 10:32:47;;;;;;;5.10;3.15;;;;;;;12.59;62.56;94464.66;1641197;85;21566;-60
2021/05/30 10:35:25;;;;;;;3.95;2.20;;;;;;;12.59;63.40;94456.98;1647265;85;20972;-57
2021/05/30 10:37:56;;;;;;;3.15;2.85;;;;;;;12.67;63.52;94464.45;1655633;85;21075;-61
2021/05/30 10:40:33;;;;;;;3.40;2.98;;;;;;;12.76;63.16;94473.31;1652585;85;21678;-59
2021/05/30 10:43:12;;;;;;;2.95;2.15;;;;;;;12.81;62.93;94465.16;1647069;85;21124;-62
2021/05/30 10:45:55;;;;;;;3.92;3.62;;;;;;;12.89;63.69;94462.19;1652107;85;20981;-61
2021/05/30 10:48:21;;;;;;;8.03;3.00;;;;;;;12.98;63.39;94464.17;1653489;85;20996;-60
2021/05/30 10:50:55;;;;;;;11.40;3.20;;;;;;;13.07;62.31;94466.27;1648826;85;21120;-59
2021/05/30 10:53:44;;;;;;;7.90;3.90;;;;;;;13.16;62.40;94465.44;1633155;86;21210;-61
2021/05/30 10:56:22;;;;;;;3.55;2.25;;;;;;;13.27;61.98;94467.82;1635805;87;21010;-59
2021/05/30 10:59:15;;;;;;;5.08;4.58;;;;;;;13.34;60.96;94465.32;1631844;86;21029;-59
2021/05/30 11:01:44;;;;;;;1.80;1.70;;;;;;;13.43;61.14;94468.03;1622652;86;21582;-59
2021/05/30 11:04:28;;;;;;;1.70;1.60;;;;;;;13.53;59.53;94467.49;1628007;86;21811;-60
2021/05/30 11:07:09;;;;;;;5.22;2.27;;;;;;;13.58;59.83;94463.29;1629191;86;21151;-60
2021/05/30 11:10:01;;;;;;;4.62;1.85;;;;;;;13.67;60.77;94466.00;1619253;87;21530;-59
2021/05/30 11:12:50;;;;;;;6.55;2.35;;;;;;;13.77;60.58;94463.28;1638002;86;21122;-60
2021/05/30 11:15:20;;;;;;;1.92;1.82;;;;;;;13.88;60.08;94460.73;1638463;86;21617;-60
2021/05/30 11:17:53;;;;;;;1.72;1.50;;;;;;;14.03;60.00;94461.52;1647775;86;21162;-61
2021/05/30 11:20:28;;;;;;;1.95;1.40;;;;;;;14.17;59.54;94469.10;1648465;86;21098;-60
2021/05/30 11:23:03;;;;;;;1.57;1.47;;;;;;;14.28;60.30;94463.75;1628620;87;21866;-61
2021/05/30 11:25:47;;;;;;;6.20;2.05;;;;;;;14.39;59.55;94463.31;1638205;86;21104;-59
2021/05/30 11:28:19;;;;;;;1.98;1.80;;;;;;;14.44;59.38;94463.41;1624694;86;21550;-60
2021/05/30 11:31:03;;;;;;;3.15;2.20;;;;;;;14.53;60.51;94461.16;1625316;87;21164;-61
2021/05/30 11:33:41;;;;;;;5.60;2.62;;;;;;;14.53;59.75;94464.70;1625608;87;21074;-60
2021/05/30 11:36:19;;;;;;;3.30;1.87;;;;;;;14.50;59.22;94460.13;1630228;86;21077;-62
2021/05/30 11:38:54;;;;;;;2.60;1.85;;;;;;;14.45;59.79;94473.88;1630287;86;21146;-59
2021/05/30 11:41:34;;;;;;;1.77;1.65;;;;;;;14.35;58.71;94469.66;1610788;86;21617;-60
2021/05/30 11:44:14;;;;;;;1.50;1.40;;;;;;;14.22;58.55;94473.33;1631431;86;21155;-59
2021/05/30 11:47:00;;;;;;;1.70;1.60;;;;;;;14.11;58.54;94471.73;1631983;86;21244;-60
2021/05/30 11:49:30;;;;;;;3.30;1.52;;;;;;;14.05;58.95;94477.80;1605570;87;21123;-60